Home

PKWA Terminal Aerodrome Forecast (TAF)small logo


TAF provided by NWS Guam
2014/09/02 18:30
TAF PKWA 021725Z 0218/0318 09011KT P6SM VCSH SCT020 SCT035

      



Site Map | Contact Us | Copyright © 2007 Atmospheric Technology Services Company. All rights reserved.